Time;durP1;ratioP1;P1;durP2;ratioP2;P2;SDS_P1;SDS_P2;PMS_P1;PMS_P2;Temp;Humidity;BMP_temperature;BMP_pressure;BME280_temperature;BME280_humidity;BME280_pressure;Samples;Min_cycle;Max_cycle;Signal;HPM_P1;HPM_P2
2023/07/20 00:01:38;;;;;;;;;6.00;5.00;;;;;;;;4995620;28;52728;-63
2023/07/20 00:04:03;;;;;;;;;6.00;4.00;;;;;;;;4993766;28;51231;-64
2023/07/20 00:06:28;;;;;;;;;5.00;5.00;;;;;;;;4992487;28;51735;-63
2023/07/20 00:08:58;;;;;;;;;7.00;5.00;;;;;;;;4995652;28;52834;-62
2023/07/20 00:21:03;;;;;;;;;3.50;3.50;;;;;;;;4483036;28;315131306;-63
2023/07/20 00:27:44;;;;;;;;;;;;;;;;;;2;261107000;261107000;-63
2023/07/20 00:30:10;;;;;;;;;7.00;4.67;;;;;;;;4993235;28;51862;-63
2023/07/20 00:32:36;;;;;;;;;8.00;7.00;;;;;;;;4990666;28;53481;-63
2023/07/20 00:35:01;;;;;;;;;6.00;6.00;;;;;;;;4989995;28;52693;-63
2023/07/20 00:37:26;;;;;;;;;6.33;5.33;;;;;;;;4996605;28;51239;-63
2023/07/20 00:39:53;;;;;;;;;6.00;5.33;;;;;;;;4995486;28;51129;-62
2023/07/20 00:42:18;;;;;;;;;6.00;6.00;;;;;;;;4992193;28;52087;-63
2023/07/20 00:44:43;;;;;;;;;5.33;4.33;;;;;;;;4993199;28;52292;-62
2023/07/20 00:47:08;;;;;;;;;5.33;5.00;;;;;;;;4992721;28;51443;-62
2023/07/20 00:49:34;;;;;;;;;4.33;4.33;;;;;;;;4994249;28;52085;-65
2023/07/20 00:52:00;;;;;;;;;5.00;5.00;;;;;;;;4411431;28;16927000;-65
2023/07/20 00:54:26;;;;;;;;;6.00;6.00;;;;;;;;4994183;28;52742;-65
2023/07/20 00:56:53;;;;;;;;;5.33;5.33;;;;;;;;4991131;28;51812;-63
2023/07/20 00:59:18;;;;;;;;;5.33;5.00;;;;;;;;4994499;28;51543;-62
2023/07/20 01:01:43;;;;;;;;;3.67;3.00;;;;;;;;4991765;28;51233;-63
2023/07/20 01:04:08;;;;;;;;;4.00;4.00;;;;;;;;4993839;28;51641;-64
2023/07/20 01:06:46;;;;;;;;;5.00;5.00;;;;;;;;4994920;28;51239;-65
2023/07/20 01:09:30;;;;;;;;;7.00;7.00;;;;;;;;4997667;28;51345;-65
2023/07/20 01:12:12;;;;;;;;;5.67;5.67;;;;;;;;4990688;28;52827;-64
2023/07/20 01:14:37;;;;;;;;;4.00;4.00;;;;;;;;4994966;28;52440;-64
2023/07/20 01:17:03;;;;;;;;;6.00;4.00;;;;;;;;4995266;28;52650;-64
2023/07/20 01:19:28;;;;;;;;;7.00;6.00;;;;;;;;4995013;28;51227;-65
2023/07/20 01:21:57;;;;;;;;;5.67;5.00;;;;;;;;4992584;28;52627;-64
2023/07/20 01:24:31;;;;;;;;;5.00;5.00;;;;;;;;4994587;28;51946;-62
2023/07/20 01:27:03;;;;;;;;;5.67;5.67;;;;;;;;4994000;28;51174;-63
2023/07/20 01:29:33;;;;;;;;;4.33;4.00;;;;;;;;4992146;28;51266;-64
2023/07/20 01:32:03;;;;;;;;;5.00;4.67;;;;;;;;4992114;28;51639;-62
2023/07/20 01:34:28;;;;;;;;;5.33;5.00;;;;;;;;4993987;28;52656;-63
2023/07/20 01:36:54;;;;;;;;;4.67;4.67;;;;;;;;4992210;28;51402;-63
2023/07/20 01:39:20;;;;;;;;;7.00;6.00;;;;;;;;4987044;28;51925;-66
2023/07/20 01:41:46;;;;;;;;;5.00;5.00;;;;;;;;4991410;28;51417;-74
2023/07/20 01:44:12;;;;;;;;;5.33;5.33;;;;;;;;4993026;28;52819;-67
2023/07/20 01:46:38;;;;;;;;;6.67;6.67;;;;;;;;4993975;28;52813;-66
2023/07/20 01:49:03;;;;;;;;;5.00;5.00;;;;;;;;4992164;28;51694;-67
2023/07/20 01:51:28;;;;;;;;;8.00;7.33;;;;;;;;4993043;28;51676;-68
2023/07/20 01:53:53;;;;;;;;;6.00;6.00;;;;;;;;4992055;28;54149;-63
2023/07/20 01:56:18;;;;;;;;;7.00;6.00;;;;;;;;4996802;28;51629;-63
2023/07/20 01:58:44;;;;;;;;;5.33;4.67;;;;;;;;4994030;28;52754;-63
2023/07/20 02:07:34;;;;;;;;;;;;;;;;;;344536;28;261122235;-63
2023/07/20 02:17:28;;;;;;;;;2.50;2.50;;;;;;;;2;315131050;315131050;-65
2023/07/20 02:25:44;;;;;;;;;5.00;5.00;;;;;;;;2;261108385;261108385;-62
2023/07/20 02:35:40;;;;;;;;;2.50;2.00;;;;;;;;2;315134871;315134871;-62
2023/07/20 02:43:56;;;;;;;;;2.50;2.50;;;;;;;;2;261110880;261110880;-61
2023/07/20 02:53:51;;;;;;;;;3.00;3.00;;;;;;;;2;315136367;315136367;-63
2023/07/20 03:02:09;;;;;;;;;3.50;3.50;;;;;;;;2;261111699;261111699;-62
2023/07/20 03:12:04;;;;;;;;;6.50;6.50;;;;;;;;2;315131527;315131527;-61
2023/07/20 03:20:21;;;;;;;;;8.00;8.00;;;;;;;;2;261107516;261107516;-61
2023/07/20 03:30:17;;;;;;;;;5.00;5.00;;;;;;;;2;315129601;315129601;-62
2023/07/20 03:38:34;;;;;;;;;5.50;5.50;;;;;;;;2;262456158;262456158;-62
2023/07/20 03:48:28;;;;;;;;;3.50;3.50;;;;;;;;2;315133340;315133340;-61
2023/07/20 03:56:44;;;;;;;;;4.50;4.50;;;;;;;;2;261114108;261114108;-61
2023/07/20 04:06:38;;;;;;;;;1.50;1.50;;;;;;;;2;315105189;315105189;-61
2023/07/20 04:14:53;;;;;;;;;3.50;3.50;;;;;;;;2;261117239;261117239;-62
2023/07/20 04:24:48;;;;;;;;;4.50;4.50;;;;;;;;2;315132023;315132023;-63
2023/07/20 04:33:03;;;;;;;;;3.50;3.50;;;;;;;;2;261106965;261106965;-63
2023/07/20 04:35:44;;;;;;;;;6.00;6.00;;;;;;;;2931484;28;59728182;-63
2023/07/20 04:44:54;;;;;;;;;;;;;;;;;;2;234103159;234103159;-62
2023/07/20 04:53:54;;;;;;;;;7.50;2.50;;;;;;;;2;279120629;279120629;-63
2023/07/20 05:03:05;;;;;;;;;2.00;2.00;;;;;;;;2;234099692;234099692;-62
2023/07/20 05:12:05;;;;;;;;;7.00;3.00;;;;;;;;2;279121182;279121182;-63
2023/07/20 05:21:15;;;;;;;;;10.50;10.50;;;;;;;;2;234090821;234090821;-62
2023/07/20 05:30:15;;;;;;;;;5.50;5.50;;;;;;;;2;279082830;279082830;-63
2023/07/20 05:32:40;;;;;;;;;5.67;4.00;;;;;;;;1214321;28;109791956;-62
2023/07/20 05:35:06;;;;;;;;;4.00;3.00;;;;;;;;5020185;28;51138;-64
2023/07/20 05:37:31;;;;;;;;;5.33;4.67;;;;;;;;5019214;28;51164;-64
2023/07/20 05:39:57;;;;;;;;;5.25;4.25;;;;;;;;5017110;28;51225;-63
2023/07/20 05:42:22;;;;;;;;;4.00;4.00;;;;;;;;5016035;28;51173;-65
2023/07/20 05:44:49;;;;;;;;;7.33;6.33;;;;;;;;5014019;28;51989;-62
2023/07/20 05:47:14;;;;;;;;;4.00;3.75;;;;;;;;5022940;28;51135;-63
2023/07/20 05:49:40;;;;;;;;;6.00;6.00;;;;;;;;5016426;28;51184;-62
2023/07/20 05:52:05;;;;;;;;;4.00;4.00;;;;;;;;5018118;28;51053;-62
2023/07/20 05:54:30;;;;;;;;;3.67;3.67;;;;;;;;5021800;28;51266;-63
2023/07/20 05:56:56;;;;;;;;;3.00;3.00;;;;;;;;5026362;28;51111;-61
2023/07/20 05:59:21;;;;;;;;;4.00;3.00;;;;;;;;5022580;28;51227;-62
2023/07/20 06:01:48;;;;;;;;;3.33;3.33;;;;;;;;5011644;28;51173;-62
2023/07/20 06:04:13;;;;;;;;;4.67;4.00;;;;;;;;5018264;28;51123;-62
2023/07/20 06:06:39;;;;;;;;;2.33;2.33;;;;;;;;5018735;28;51069;-61
2023/07/20 06:09:05;;;;;;;;;4.67;4.00;;;;;;;;5016923;28;51121;-62
2023/07/20 06:11:30;;;;;;;;;4.00;4.00;;;;;;;;5021688;28;50994;-62
2023/07/20 06:13:56;;;;;;;;;4.00;4.00;;;;;;;;5021269;28;52173;-63
2023/07/20 06:16:21;;;;;;;;;4.33;4.00;;;;;;;;5013601;28;51079;-62
2023/07/20 06:18:46;;;;;;;;;4.33;4.33;;;;;;;;4998152;28;51378;-62
2023/07/20 06:21:12;;;;;;;;;7.00;4.67;;;;;;;;4997441;28;52366;-63
2023/07/20 06:23:37;;;;;;;;;5.67;4.67;;;;;;;;4993808;28;51980;-63
2023/07/20 06:26:02;;;;;;;;;4.67;4.67;;;;;;;;4994815;28;51174;-66
2023/07/20 06:28:27;;;;;;;;;5.33;5.33;;;;;;;;4998015;28;51183;-64
2023/07/20 06:30:58;;;;;;;;;10.67;10.00;;;;;;;;4997685;28;53448;-65
2023/07/20 06:33:23;;;;;;;;;5.67;5.67;;;;;;;;4993302;28;52715;-63
2023/07/20 06:35:48;;;;;;;;;6.00;4.33;;;;;;;;4994264;28;52007;-64
2023/07/20 06:38:14;;;;;;;;;8.33;8.00;;;;;;;;4998598;28;51942;-63
2023/07/20 06:40:39;;;;;;;;;7.00;7.00;;;;;;;;4997143;28;51247;-64
2023/07/20 06:43:04;;;;;;;;;5.67;5.33;;;;;;;;4736580;28;3628180;-64
2023/07/20 06:45:29;;;;;;;;;5.00;4.33;;;;;;;;4998774;28;51903;-64
2023/07/20 06:47:55;;;;;;;;;4.67;3.33;;;;;;;;4999348;28;51232;-64
2023/07/20 06:50:20;;;;;;;;;4.33;4.00;;;;;;;;5004739;28;50890;-63
2023/07/20 06:52:47;;;;;;;;;6.33;5.33;;;;;;;;4998958;28;51836;-64
2023/07/20 06:55:12;;;;;;;;;5.00;5.00;;;;;;;;5010018;28;53431;-63
2023/07/20 06:57:38;;;;;;;;;5.67;5.00;;;;;;;;5009975;28;52296;-62
2023/07/20 07:00:04;;;;;;;;;5.00;4.33;;;;;;;;5010675;28;51121;-64
2023/07/20 07:02:29;;;;;;;;;5.00;5.00;;;;;;;;5014335;28;52542;-64
2023/07/20 07:04:55;;;;;;;;;4.67;4.67;;;;;;;;5014153;28;51103;-65
2023/07/20 07:07:20;;;;;;;;;7.00;6.00;;;;;;;;5006831;28;51086;-65
2023/07/20 07:09:48;;;;;;;;;7.33;7.00;;;;;;;;5013703;28;51114;-65
2023/07/20 07:12:14;;;;;;;;;9.00;6.33;;;;;;;;5013302;28;52042;-64
2023/07/20 07:14:39;;;;;;;;;4.67;4.33;;;;;;;;5011346;28;51221;-64
2023/07/20 07:17:04;;;;;;;;;4.67;4.67;;;;;;;;5011600;28;50963;-65
2023/07/20 07:19:30;;;;;;;;;4.33;4.33;;;;;;;;5013452;28;51147;-64
2023/07/20 07:21:55;;;;;;;;;3.00;3.00;;;;;;;;5008878;28;51062;-65
2023/07/20 07:24:20;;;;;;;;;3.67;3.67;;;;;;;;5001296;28;51129;-66
2023/07/20 07:26:46;;;;;;;;;4.33;4.00;;;;;;;;5012021;28;51319;-66
2023/07/20 07:29:11;;;;;;;;;3.67;3.67;;;;;;;;5010954;28;51289;-66
2023/07/20 07:31:36;;;;;;;;;5.33;4.33;;;;;;;;4994262;28;51878;-65
2023/07/20 07:34:02;;;;;;;;;5.67;5.67;;;;;;;;4999782;28;51016;-66
2023/07/20 07:36:27;;;;;;;;;5.00;4.33;;;;;;;;5009821;28;51307;-66
2023/07/20 07:38:52;;;;;;;;;3.33;3.00;;;;;;;;5005402;28;51311;-66
2023/07/20 07:41:17;;;;;;;;;3.67;3.67;;;;;;;;5009822;28;53833;-66
2023/07/20 07:43:43;;;;;;;;;4.00;4.00;;;;;;;;5010906;28;51058;-66
2023/07/20 07:46:08;;;;;;;;;4.00;3.00;;;;;;;;5002813;28;51398;-66
2023/07/20 07:48:33;;;;;;;;;4.67;4.33;;;;;;;;5012640;28;51092;-66
2023/07/20 07:50:58;;;;;;;;;4.67;4.67;;;;;;;;5013955;28;53524;-66
2023/07/20 07:53:25;;;;;;;;;6.67;4.00;;;;;;;;5013762;28;50912;-66
2023/07/20 07:55:51;;;;;;;;;3.00;3.00;;;;;;;;5013334;28;51069;-66
2023/07/20 07:58:16;;;;;;;;;3.00;3.00;;;;;;;;5014523;28;51158;-66
2023/07/20 08:00:43;;;;;;;;;4.33;3.67;;;;;;;;5014203;28;51095;-67
2023/07/20 08:03:08;;;;;;;;;3.00;3.00;;;;;;;;5013744;28;51014;-67
2023/07/20 08:05:34;;;;;;;;;4.00;4.00;;;;;;;;5013526;28;51122;-67
2023/07/20 08:08:00;;;;;;;;;5.33;5.00;;;;;;;;5014594;28;50805;-67
2023/07/20 08:19:54;;;;;;;;;5.00;5.00;;;;;;;;4152858;28;315090962;-68
2023/07/20 08:22:19;;;;;;;;;2.00;2.00;;;;;;;;4360627;28;18771828;-68
2023/07/20 08:24:45;;;;;;;;;0.33;0.00;;;;;;;;5014183;28;50962;-68
2023/07/20 08:27:10;;;;;;;;;3.00;3.00;;;;;;;;5012803;28;51176;-68
2023/07/20 08:29:35;;;;;;;;;4.00;2.67;;;;;;;;5013657;28;50947;-68
2023/07/20 08:32:01;;;;;;;;;2.67;2.67;;;;;;;;5008144;28;51220;-69
2023/07/20 08:34:26;;;;;;;;;2.67;2.67;;;;;;;;4992289;28;51285;-68
2023/07/20 08:36:51;;;;;;;;;4.00;3.00;;;;;;;;4993784;28;51171;-68
2023/07/20 08:39:16;;;;;;;;;3.00;3.00;;;;;;;;4991833;28;51127;-69
2023/07/20 08:41:42;;;;;;;;;2.33;2.00;;;;;;;;4993591;28;51226;-68
2023/07/20 08:44:08;;;;;;;;;6.33;5.67;;;;;;;;4994180;28;51075;-68
2023/07/20 08:46:34;;;;;;;;;1.33;1.33;;;;;;;;4993592;28;51031;-68
2023/07/20 08:49:01;;;;;;;;;3.00;3.00;;;;;;;;4994210;28;50882;-69
2023/07/20 08:51:27;;;;;;;;;2.00;2.00;;;;;;;;4993379;28;50924;-67
2023/07/20 08:53:52;;;;;;;;;3.00;3.00;;;;;;;;4992047;28;51033;-68
2023/07/20 08:56:18;;;;;;;;;2.00;2.00;;;;;;;;4968263;28;769501;-68
2023/07/20 08:58:44;;;;;;;;;3.00;3.00;;;;;;;;4994060;28;51242;-68
2023/07/20 09:01:11;;;;;;;;;2.00;2.00;;;;;;;;4993055;28;51804;-68
2023/07/20 09:03:39;;;;;;;;;3.00;3.00;;;;;;;;4993608;28;51086;-70
2023/07/20 09:06:04;;;;;;;;;1.00;1.00;;;;;;;;4993403;28;51118;-68
2023/07/20 09:08:29;;;;;;;;;4.67;4.33;;;;;;;;5001606;28;51022;-69
2023/07/20 09:10:54;;;;;;;;;4.67;4.67;;;;;;;;5012961;28;51973;-68
2023/07/20 09:13:20;;;;;;;;;4.00;3.33;;;;;;;;5013444;28;50932;-68
2023/07/20 09:15:46;;;;;;;;;3.33;3.33;;;;;;;;5003352;28;306993;-68
2023/07/20 09:18:11;;;;;;;;;3.00;3.00;;;;;;;;5011916;28;50958;-68
2023/07/20 09:20:36;;;;;;;;;4.00;3.67;;;;;;;;5012781;28;50910;-69
2023/07/20 09:23:04;;;;;;;;;6.00;5.67;;;;;;;;5013364;28;50872;-68
2023/07/20 09:25:29;;;;;;;;;12.00;11.33;;;;;;;;5013047;28;50964;-68
2023/07/20 09:27:55;;;;;;;;;4.33;4.33;;;;;;;;5013214;28;50871;-67
2023/07/20 09:30:24;;;;;;;;;4.00;3.00;;;;;;;;5012718;28;51880;-68
2023/07/20 09:32:53;;;;;;;;;4.33;4.33;;;;;;;;5012308;28;51073;-68
2023/07/20 09:35:19;;;;;;;;;2.67;2.67;;;;;;;;5012781;28;50975;-67
2023/07/20 09:37:48;;;;;;;;;2.00;1.00;;;;;;;;5013126;28;50879;-68
2023/07/20 09:40:17;;;;;;;;;4.67;4.67;;;;;;;;5012569;28;52711;-68
2023/07/20 09:42:42;;;;;;;;;3.00;2.33;;;;;;;;5012848;28;50999;-68
2023/07/20 09:45:08;;;;;;;;;2.67;2.33;;;;;;;;5012789;28;51897;-67
2023/07/20 09:47:35;;;;;;;;;2.33;2.00;;;;;;;;5012669;28;51086;-68
2023/07/20 09:50:00;;;;;;;;;2.00;2.00;;;;;;;;5010773;28;53027;-68
2023/07/20 09:52:26;;;;;;;;;5.00;4.00;;;;;;;;5011305;28;51161;-68
2023/07/20 09:54:52;;;;;;;;;2.33;2.33;;;;;;;;5012000;28;51018;-67
2023/07/20 09:57:17;;;;;;;;;1.00;1.00;;;;;;;;5012709;28;51245;-69
2023/07/20 09:59:42;;;;;;;;;1.00;1.00;;;;;;;;4857443;28;4439947;-69
2023/07/20 10:02:13;;;;;;;;;1.33;1.33;;;;;;;;5012518;28;51023;-68
2023/07/20 10:04:40;;;;;;;;;2.00;1.67;;;;;;;;5012743;28;50927;-67
2023/07/20 10:07:11;;;;;;;;;4.00;4.00;;;;;;;;5012275;28;51216;-68
2023/07/20 10:09:39;;;;;;;;;2.33;2.33;;;;;;;;5011786;28;52523;-68
2023/07/20 10:12:05;;;;;;;;;0.00;0.00;;;;;;;;5012122;28;51087;-68
2023/07/20 10:14:33;;;;;;;;;6.00;5.00;;;;;;;;5012093;28;51071;-69
2023/07/20 10:17:01;;;;;;;;;2.33;2.33;;;;;;;;5012043;28;51417;-67
2023/07/20 10:19:45;;;;;;;;;3.33;3.33;;;;;;;;5011931;28;50951;-68
2023/07/20 10:22:19;;;;;;;;;3.33;2.67;;;;;;;;5011736;28;50962;-68
2023/07/20 10:24:45;;;;;;;;;4.00;4.00;;;;;;;;5012216;28;50974;-68
2023/07/20 10:27:11;;;;;;;;;2.00;2.00;;;;;;;;5012001;28;50860;-68
2023/07/20 10:29:36;;;;;;;;;3.00;3.00;;;;;;;;5011780;28;50877;-68
2023/07/20 10:32:02;;;;;;;;;3.00;3.00;;;;;;;;5011367;28;50949;-70
2023/07/20 10:34:27;;;;;;;;;2.00;1.67;;;;;;;;5011874;28;50899;-68
2023/07/20 10:36:54;;;;;;;;;4.67;4.00;;;;;;;;5011951;28;51082;-67
2023/07/20 10:39:27;;;;;;;;;1.00;1.00;;;;;;;;5011353;28;51194;-68
2023/07/20 10:42:03;;;;;;;;;6.33;6.00;;;;;;;;5011517;28;51074;-68
2023/07/20 10:44:28;;;;;;;;;5.00;4.67;;;;;;;;5011991;28;51051;-68
2023/07/20 10:47:01;;;;;;;;;2.00;2.00;;;;;;;;5011238;28;50992;-68
2023/07/20 10:49:27;;;;;;;;;2.00;2.00;;;;;;;;5011402;28;52012;-68
2023/07/20 10:51:59;;;;;;;;;7.33;7.33;;;;;;;;5011770;28;50920;-69
2023/07/20 10:54:27;;;;;;;;;4.00;4.00;;;;;;;;5011509;28;51213;-68
2023/07/20 10:56:52;;;;;;;;;6.00;6.00;;;;;;;;5011950;28;51278;-68
2023/07/20 10:59:18;;;;;;;;;2.67;2.67;;;;;;;;5011163;28;51242;-68
2023/07/20 11:01:44;;;;;;;;;5.67;4.00;;;;;;;;5012027;28;50935;-68
2023/07/20 11:04:09;;;;;;;;;2.00;2.00;;;;;;;;5012723;28;51128;-67
2023/07/20 11:06:37;;;;;;;;;0.00;0.00;;;;;;;;5009854;28;51316;-68
2023/07/20 11:09:14;;;;;;;;;1.00;1.00;;;;;;;;5014350;28;51746;-68
2023/07/20 11:11:39;;;;;;;;;1.33;1.33;;;;;;;;5014418;28;51075;-67
2023/07/20 11:14:08;;;;;;;;;1.00;1.00;;;;;;;;5014564;28;51027;-67
2023/07/20 11:16:37;;;;;;;;;3.00;2.67;;;;;;;;5014656;28;51312;-67
2023/07/20 11:19:03;;;;;;;;;4.00;4.00;;;;;;;;5014093;28;51880;-67
2023/07/20 11:21:29;;;;;;;;;7.00;7.00;;;;;;;;5014935;28;51080;-67
2023/07/20 11:23:55;;;;;;;;;2.67;2.00;;;;;;;;5014791;28;51267;-68
2023/07/20 11:26:20;;;;;;;;;2.33;2.00;;;;;;;;5015072;28;50979;-68
2023/07/20 11:28:49;;;;;;;;;4.00;3.67;;;;;;;;5014083;28;50926;-69
2023/07/20 11:31:16;;;;;;;;;1.00;1.00;;;;;;;;5012908;28;50967;-69
2023/07/20 11:33:41;;;;;;;;;1.00;1.00;;;;;;;;5014380;28;51142;-69
2023/07/20 11:36:08;;;;;;;;;2.00;2.00;;;;;;;;5013608;28;51025;-68
2023/07/20 11:38:33;;;;;;;;;2.00;2.00;;;;;;;;5014250;28;52032;-68
2023/07/20 11:40:58;;;;;;;;;3.00;2.67;;;;;;;;5014314;28;51098;-68
2023/07/20 11:43:24;;;;;;;;;4.00;3.00;;;;;;;;5014408;28;50999;-68
2023/07/20 11:45:49;;;;;;;;;3.00;2.33;;;;;;;;5014497;28;51221;-66
2023/07/20 11:48:15;;;;;;;;;2.00;2.00;;;;;;;;5014177;28;51140;-67
2023/07/20 11:50:40;;;;;;;;;3.00;3.00;;;;;;;;5013931;28;50912;-66
2023/07/20 11:53:06;;;;;;;;;3.00;2.33;;;;;;;;5013732;28;51180;-67
2023/07/20 11:56:06;;;;;;;;;;;;;;;;;;2765217;28;99502508;-69
2023/07/20 11:58:31;;;;;;;;;3.00;3.00;;;;;;;;4834034;28;4846348;-67
2023/07/20 12:00:57;;;;;;;;;1.00;1.00;;;;;;;;4994252;28;51060;-68
2023/07/20 12:03:22;;;;;;;;;4.33;4.33;;;;;;;;4995426;28;51242;-70
2023/07/20 12:05:50;;;;;;;;;0.00;0.00;;;;;;;;5014034;28;50978;-68
2023/07/20 12:08:15;;;;;;;;;1.00;1.00;;;;;;;;5014234;28;50957;-68
2023/07/20 12:10:43;;;;;;;;;1.67;1.67;;;;;;;;5013949;28;51222;-66
2023/07/20 12:13:10;;;;;;;;;1.00;1.00;;;;;;;;5013528;28;51035;-68
2023/07/20 12:15:35;;;;;;;;;2.33;2.33;;;;;;;;4764159;28;7185511;-69
2023/07/20 12:18:01;;;;;;;;;1.00;1.00;;;;;;;;5014347;28;50905;-69
2023/07/20 12:20:28;;;;;;;;;2.00;2.00;;;;;;;;5013607;28;50933;-67
2023/07/20 12:22:55;;;;;;;;;1.00;1.00;;;;;;;;5014433;28;50871;-67
2023/07/20 12:25:21;;;;;;;;;0.00;0.00;;;;;;;;4995665;28;53109;-66
2023/07/20 12:27:47;;;;;;;;;1.00;1.00;;;;;;;;5014306;28;51030;-67
2023/07/20 12:30:13;;;;;;;;;1.00;1.00;;;;;;;;5013909;28;51071;-66
2023/07/20 12:32:38;;;;;;;;;1.00;1.00;;;;;;;;5013587;28;51066;-68
2023/07/20 12:35:04;;;;;;;;;3.00;3.00;;;;;;;;5013318;28;51882;-68
2023/07/20 12:37:29;;;;;;;;;1.00;1.00;;;;;;;;5013768;28;51078;-68
2023/07/20 12:39:54;;;;;;;;;2.00;1.33;;;;;;;;5013560;28;51152;-67
2023/07/20 12:42:21;;;;;;;;;0.00;0.00;;;;;;;;5013777;28;50861;-67
2023/07/20 12:44:47;;;;;;;;;1.00;1.00;;;;;;;;5013285;28;50916;-67
2023/07/20 12:47:12;;;;;;;;;2.00;2.00;;;;;;;;5012878;28;51082;-67
2023/07/20 12:49:37;;;;;;;;;3.00;3.00;;;;;;;;4862340;28;4355835;-67
2023/07/20 12:52:03;;;;;;;;;2.00;2.00;;;;;;;;5013561;28;51123;-67
2023/07/20 12:54:28;;;;;;;;;1.67;1.67;;;;;;;;5011401;28;52826;-67
2023/07/20 12:56:53;;;;;;;;;1.33;1.33;;;;;;;;5013459;28;51019;-67
2023/07/20 12:59:18;;;;;;;;;4.00;3.00;;;;;;;;5013019;28;51212;-66
2023/07/20 13:01:44;;;;;;;;;9.33;9.33;;;;;;;;5013513;28;51002;-67
2023/07/20 13:04:10;;;;;;;;;0.67;0.67;;;;;;;;5012852;28;50946;-68
2023/07/20 13:06:35;;;;;;;;;2.00;2.00;;;;;;;;5013111;28;50844;-68
2023/07/20 13:09:00;;;;;;;;;1.00;1.00;;;;;;;;5012899;28;51086;-66
2023/07/20 13:11:26;;;;;;;;;0.67;0.67;;;;;;;;5013348;28;51419;-68
2023/07/20 13:13:51;;;;;;;;;2.00;2.00;;;;;;;;5012767;28;51538;-68
2023/07/20 13:16:16;;;;;;;;;2.00;1.00;;;;;;;;5012862;28;50993;-67
2023/07/20 13:18:42;;;;;;;;;0.67;0.67;;;;;;;;5012877;28;51176;-67
2023/07/20 13:21:10;;;;;;;;;1.00;1.00;;;;;;;;5013132;28;51189;-67
2023/07/20 13:23:36;;;;;;;;;2.00;1.67;;;;;;;;5012550;28;51980;-67
2023/07/20 13:26:01;;;;;;;;;1.67;1.67;;;;;;;;5012607;28;51213;-68
2023/07/20 13:28:26;;;;;;;;;3.33;3.33;;;;;;;;5012767;28;51450;-67
2023/07/20 13:30:52;;;;;;;;;1.00;1.00;;;;;;;;5012477;28;51247;-67
2023/07/20 13:33:17;;;;;;;;;2.33;2.00;;;;;;;;5011286;28;50972;-67
2023/07/20 13:35:42;;;;;;;;;0.33;0.33;;;;;;;;5004500;28;50971;-67
2023/07/20 13:38:08;;;;;;;;;0.67;0.67;;;;;;;;4992950;28;50842;-67
2023/07/20 13:40:33;;;;;;;;;2.00;2.00;;;;;;;;4993013;28;51048;-68
2023/07/20 13:42:58;;;;;;;;;1.00;1.00;;;;;;;;4992316;28;53483;-67
2023/07/20 13:45:23;;;;;;;;;1.33;1.00;;;;;;;;4992662;28;51019;-67
2023/07/20 13:47:49;;;;;;;;;0.00;0.00;;;;;;;;4992727;28;50979;-67
2023/07/20 13:50:14;;;;;;;;;1.00;1.00;;;;;;;;4993136;28;50829;-67
2023/07/20 13:52:40;;;;;;;;;1.00;0.33;;;;;;;;4992351;28;52698;-67
2023/07/20 13:55:06;;;;;;;;;2.00;2.00;;;;;;;;4995370;28;51889;-67
2023/07/20 13:57:31;;;;;;;;;3.00;3.00;;;;;;;;5010652;28;51170;-66
2023/07/20 13:59:57;;;;;;;;;1.33;1.33;;;;;;;;4992585;28;51267;-67
2023/07/20 14:02:22;;;;;;;;;2.00;2.00;;;;;;;;5007735;28;51278;-67
2023/07/20 14:04:48;;;;;;;;;2.00;1.67;;;;;;;;5012404;28;50998;-67
2023/07/20 14:07:13;;;;;;;;;1.00;1.00;;;;;;;;5012132;28;51264;-66
2023/07/20 14:09:38;;;;;;;;;2.00;2.00;;;;;;;;5012045;28;51086;-66
2023/07/20 14:12:04;;;;;;;;;0.00;0.00;;;;;;;;5011731;28;51894;-67
2023/07/20 14:14:29;;;;;;;;;3.00;2.00;;;;;;;;5012101;28;51050;-66
2023/07/20 14:16:56;;;;;;;;;0.33;0.33;;;;;;;;5011574;28;51144;-66
2023/07/20 14:19:21;;;;;;;;;1.33;1.33;;;;;;;;5012525;28;51130;-68
2023/07/20 14:21:46;;;;;;;;;1.33;1.33;;;;;;;;5011797;28;52011;-67
2023/07/20 14:24:12;;;;;;;;;1.00;1.00;;;;;;;;5011763;28;51078;-68
2023/07/20 14:26:37;;;;;;;;;2.00;1.67;;;;;;;;5011891;28;51063;-68
2023/07/20 14:29:02;;;;;;;;;2.33;2.00;;;;;;;;5012022;28;51109;-66
2023/07/20 14:31:27;;;;;;;;;3.00;3.00;;;;;;;;5010978;28;51844;-66
2023/07/20 14:33:53;;;;;;;;;3.00;3.00;;;;;;;;5011894;28;50917;-66
2023/07/20 14:36:18;;;;;;;;;2.33;2.33;;;;;;;;5011636;28;51059;-66
2023/07/20 14:38:43;;;;;;;;;1.00;0.33;;;;;;;;5015595;28;50875;-67
2023/07/20 14:41:08;;;;;;;;;1.00;1.00;;;;;;;;5015123;28;51986;-67
2023/07/20 14:43:33;;;;;;;;;2.00;2.00;;;;;;;;5015361;28;51014;-67
2023/07/20 14:45:59;;;;;;;;;1.00;1.00;;;;;;;;5015224;28;50838;-67
2023/07/20 14:48:24;;;;;;;;;1.00;1.00;;;;;;;;5015426;28;51038;-67
2023/07/20 14:50:49;;;;;;;;;1.33;1.33;;;;;;;;5014888;28;51048;-68
2023/07/20 14:53:14;;;;;;;;;1.00;1.00;;;;;;;;5014718;28;50959;-67
2023/07/20 14:55:41;;;;;;;;;2.00;2.00;;;;;;;;5015089;28;51269;-68
2023/07/20 14:58:07;;;;;;;;;2.00;2.00;;;;;;;;5014934;28;51157;-66
2023/07/20 15:00:32;;;;;;;;;3.00;3.00;;;;;;;;5014357;28;51106;-64
2023/07/20 15:02:57;;;;;;;;;3.33;3.00;;;;;;;;5014386;28;51050;-65
2023/07/20 15:05:23;;;;;;;;;2.00;2.00;;;;;;;;5015235;28;51013;-65
2023/07/20 15:07:49;;;;;;;;;3.33;3.33;;;;;;;;5013354;28;51396;-65
2023/07/20 15:10:15;;;;;;;;;3.00;3.00;;;;;;;;5014382;28;51585;-65
2023/07/20 15:12:40;;;;;;;;;2.33;2.33;;;;;;;;5014687;28;51047;-65
2023/07/20 15:15:12;;;;;;;;;3.67;3.00;;;;;;;;5014667;28;51029;-66
2023/07/20 15:17:40;;;;;;;;;2.00;2.00;;;;;;;;5014720;28;50977;-65
2023/07/20 15:20:06;;;;;;;;;3.67;3.33;;;;;;;;5013145;28;52943;-65
2023/07/20 15:22:32;;;;;;;;;3.00;3.00;;;;;;;;5014578;28;50885;-66
2023/07/20 15:24:58;;;;;;;;;3.67;3.67;;;;;;;;5012955;28;51093;-66
2023/07/20 15:27:23;;;;;;;;;3.33;2.67;;;;;;;;5014547;28;51176;-66
2023/07/20 15:29:49;;;;;;;;;2.00;1.00;;;;;;;;5014232;28;51015;-65
2023/07/20 15:32:16;;;;;;;;;1.33;1.33;;;;;;;;5013675;28;50965;-66
2023/07/20 15:34:41;;;;;;;;;1.33;1.33;;;;;;;;5014231;28;51119;-66
2023/07/20 15:37:06;;;;;;;;;1.67;1.67;;;;;;;;5014158;28;51279;-66
2023/07/20 15:39:31;;;;;;;;;1.33;1.33;;;;;;;;5013708;28;51744;-66
2023/07/20 15:41:57;;;;;;;;;3.00;3.00;;;;;;;;5014096;28;51090;-66
2023/07/20 15:44:22;;;;;;;;;3.33;3.00;;;;;;;;5014150;28;51043;-66
2023/07/20 15:46:48;;;;;;;;;3.00;2.00;;;;;;;;5014107;28;50978;-66
2023/07/20 15:51:06;;;;;;;;;9.00;8.00;;;;;;;;4842827;28;118115252;-67
2023/07/20 15:53:31;;;;;;;;;0.67;0.67;;;;;;;;2373475;28;76355309;-66
2023/07/20 15:56:28;;;;;;;;;3.00;3.00;;;;;;;;4695642;28;40094824;-65
2023/07/20 15:58:53;;;;;;;;;2.33;2.33;;;;;;;;5011161;28;51071;-66
2023/07/20 16:01:18;;;;;;;;;3.00;3.00;;;;;;;;5013421;28;51168;-65
2023/07/20 16:03:44;;;;;;;;;1.33;0.33;;;;;;;;5013996;28;50943;-65
2023/07/20 16:06:09;;;;;;;;;4.00;4.00;;;;;;;;5013316;28;51389;-65
2023/07/20 16:08:34;;;;;;;;;4.00;3.67;;;;;;;;5013672;28;51006;-66
2023/07/20 16:11:00;;;;;;;;;3.33;2.33;;;;;;;;5013504;28;51144;-66
2023/07/20 16:13:26;;;;;;;;;3.00;3.00;;;;;;;;5014022;28;51007;-67
2023/07/20 16:15:51;;;;;;;;;9.67;9.00;;;;;;;;3698837;28;22918166;-65
2023/07/20 16:18:16;;;;;;;;;3.67;3.67;;;;;;;;5013748;28;51337;-66
2023/07/20 16:20:42;;;;;;;;;4.00;4.00;;;;;;;;5013534;28;51070;-66
2023/07/20 16:23:07;;;;;;;;;3.00;3.00;;;;;;;;5013655;28;50912;-67
2023/07/20 16:25:32;;;;;;;;;2.00;2.00;;;;;;;;5013712;28;51176;-65
2023/07/20 16:27:57;;;;;;;;;2.67;2.67;;;;;;;;5012239;28;51026;-65
2023/07/20 16:30:22;;;;;;;;;4.00;3.00;;;;;;;;5013229;28;51285;-66
2023/07/20 16:32:48;;;;;;;;;3.33;3.00;;;;;;;;5013333;28;51119;-66
2023/07/20 16:35:13;;;;;;;;;3.33;3.00;;;;;;;;5009209;28;51182;-65
2023/07/20 16:37:38;;;;;;;;;5.00;5.00;;;;;;;;4993464;28;51491;-65
2023/07/20 16:40:08;;;;;;;;;4.00;3.00;;;;;;;;4991869;28;51000;-66
2023/07/20 16:42:34;;;;;;;;;6.33;6.33;;;;;;;;4992384;28;51063;-65
2023/07/20 16:44:59;;;;;;;;;2.00;2.00;;;;;;;;4993682;28;51011;-65
2023/07/20 16:47:24;;;;;;;;;3.33;3.33;;;;;;;;4992837;28;51085;-66
2023/07/20 16:49:49;;;;;;;;;1.33;1.33;;;;;;;;4993202;28;51205;-65
2023/07/20 16:52:15;;;;;;;;;3.00;3.00;;;;;;;;4993422;28;51004;-65
2023/07/20 16:54:40;;;;;;;;;9.33;9.33;;;;;;;;4993438;28;51042;-65
2023/07/20 16:57:05;;;;;;;;;5.00;5.00;;;;;;;;4998868;28;53187;-65
2023/07/20 16:59:31;;;;;;;;;2.00;2.00;;;;;;;;5011970;28;51181;-66
2023/07/20 17:01:56;;;;;;;;;3.33;3.33;;;;;;;;5012670;28;51017;-66
2023/07/20 17:04:21;;;;;;;;;4.67;4.00;;;;;;;;5012958;28;51324;-66
2023/07/20 17:06:47;;;;;;;;;4.00;4.00;;;;;;;;5011295;28;51939;-65
2023/07/20 17:09:12;;;;;;;;;3.67;3.67;;;;;;;;5012282;28;51061;-65
2023/07/20 17:11:38;;;;;;;;;3.00;3.00;;;;;;;;5012646;28;51034;-66
2023/07/20 17:14:03;;;;;;;;;3.00;2.67;;;;;;;;5012826;28;50903;-66
2023/07/20 17:16:28;;;;;;;;;4.00;4.00;;;;;;;;5012533;28;52059;-65
2023/07/20 17:18:54;;;;;;;;;4.67;4.00;;;;;;;;5009242;28;51081;-65
2023/07/20 17:21:19;;;;;;;;;4.00;3.33;;;;;;;;4993109;28;50927;-66
2023/07/20 17:23:44;;;;;;;;;2.33;2.33;;;;;;;;4992936;28;51059;-66
2023/07/20 17:26:11;;;;;;;;;3.33;3.33;;;;;;;;4992867;28;52071;-67
2023/07/20 17:28:36;;;;;;;;;2.00;2.00;;;;;;;;4992823;28;51027;-66
2023/07/20 17:31:02;;;;;;;;;3.33;3.00;;;;;;;;4992398;28;51019;-66